Time;durP1;ratioP1;P1;durP2;ratioP2;P2;SDS_P1;SDS_P2;PMS_P1;PMS_P2;Temp;Humidity;BMP_temperature;BMP_pressure;BME280_temperature;BME280_humidity;BME280_pressure;Samples;Min_cycle;Max_cycle;Signal;HPM_P1;HPM_P2
2022/03/13 00:02:09;;;;;;;0.10;0.10;;;9.90;99.90;;;;;;5051785;28;20036;-76
2022/03/13 00:04:36;;;;;;;0.00;0.00;;;9.90;99.90;;;;;;5052608;28;20108;-76
2022/03/13 00:07:16;;;;;;;0.00;0.00;;;9.90;99.90;;;;;;5052835;28;20025;-77
2022/03/13 00:09:44;;;;;;;0.05;0.05;;;9.90;99.90;;;;;;5051191;28;20112;-75
2022/03/13 00:12:15;;;;;;;0.00;0.00;;;9.90;99.90;;;;;;5052510;28;20023;-76
2022/03/13 00:14:44;;;;;;;0.00;0.00;;;9.90;99.90;;;;;;5052450;28;20481;-76
2022/03/13 00:17:14;;;;;;;0.10;0.10;;;9.90;99.90;;;;;;5052407;28;20036;-76
2022/03/13 00:19:39;;;;;;;0.00;0.00;;;9.90;99.90;;;;;;5052544;28;20028;-76
2022/03/13 00:22:05;;;;;;;0.00;0.00;;;9.90;99.90;;;;;;5052839;28;20029;-75
2022/03/13 00:24:32;;;;;;;0.00;0.00;;;9.90;99.90;;;;;;5052325;28;20029;-75
2022/03/13 00:27:00;;;;;;;0.00;0.00;;;9.90;99.90;;;;;;5052625;28;20021;-75
2022/03/13 00:29:26;;;;;;;0.00;0.00;;;9.90;99.90;;;;;;5054088;28;20418;-75
2022/03/13 00:31:52;;;;;;;0.25;0.25;;;9.90;99.90;;;;;;5052573;28;20029;-75
2022/03/13 00:34:18;;;;;;;0.00;0.00;;;9.90;99.90;;;;;;5054764;28;20036;-74
2022/03/13 00:36:43;;;;;;;0.00;0.00;;;9.90;99.90;;;;;;5055992;28;20453;-76
2022/03/13 00:39:09;;;;;;;0.00;0.00;;;9.90;99.90;;;;;;5056385;28;20154;-76
2022/03/13 00:41:36;;;;;;;0.00;0.00;;;9.90;99.90;;;;;;5056416;28;20511;-76
2022/03/13 00:44:02;;;;;;;0.00;0.00;;;9.90;99.90;;;;;;5056563;28;20041;-75
2022/03/13 00:46:29;;;;;;;0.10;0.10;;;9.90;99.90;;;;;;5056774;28;20419;-75
2022/03/13 00:48:55;;;;;;;0.00;0.00;;;9.90;99.90;;;;;;5056048;28;20020;-75
2022/03/13 00:51:20;;;;;;;0.00;0.00;;;9.80;99.90;;;;;;5056309;28;20028;-75
2022/03/13 00:53:46;;;;;;;0.00;0.00;;;9.80;99.90;;;;;;5055824;28;20103;-76
2022/03/13 00:56:12;;;;;;;0.20;0.20;;;9.80;99.90;;;;;;5056229;28;20078;-74
2022/03/13 00:58:39;;;;;;;0.10;0.10;;;9.80;99.90;;;;;;5056236;28;20025;-75
2022/03/13 01:01:05;;;;;;;0.00;0.00;;;9.90;99.90;;;;;;5056278;28;20062;-76
2022/03/13 01:03:37;;;;;;;0.00;0.00;;;9.90;99.90;;;;;;5054786;28;20041;-75
2022/03/13 01:06:08;;;;;;;0.00;0.00;;;9.90;99.90;;;;;;5055998;28;20025;-74
2022/03/13 01:08:35;;;;;;;0.00;0.00;;;9.90;99.90;;;;;;5055637;28;20025;-76
2022/03/13 01:11:02;;;;;;;0.15;0.15;;;9.90;99.90;;;;;;5056043;28;20017;-76
2022/03/13 01:13:29;;;;;;;0.00;0.00;;;9.90;99.90;;;;;;5054816;28;20036;-77
2022/03/13 01:16:19;;;;;;;0.10;0.10;;;9.80;99.90;;;;;;5055666;28;20021;-76
2022/03/13 01:18:55;;;;;;;0.00;0.00;;;9.80;99.90;;;;;;5054046;28;20037;-76
2022/03/13 01:21:21;;;;;;;0.00;0.00;;;9.70;99.90;;;;;;5055215;28;20044;-75
2022/03/13 01:24:16;;;;;;;0.00;0.00;;;9.60;99.90;;;;;;5055143;28;20052;-75
2022/03/13 01:26:42;;;;;;;0.45;0.45;;;9.60;99.90;;;;;;5055873;28;20021;-76
2022/03/13 01:29:11;;;;;;;0.00;0.00;;;9.60;99.90;;;;;;5053758;28;20029;-76
2022/03/13 01:31:39;;;;;;;0.00;0.00;;;9.70;99.90;;;;;;5054837;28;20024;-77
2022/03/13 01:34:10;;;;;;;0.35;0.32;;;9.70;99.90;;;;;;5054902;28;20040;-76
2022/03/13 01:36:35;;;;;;;0.20;0.20;;;9.70;99.90;;;;;;5055463;28;20040;-76
2022/03/13 01:39:03;;;;;;;0.00;0.00;;;9.80;99.90;;;;;;5055187;28;20414;-75
2022/03/13 01:41:29;;;;;;;0.00;0.00;;;9.80;99.90;;;;;;5055314;28;20075;-76
2022/03/13 01:43:59;;;;;;;0.00;0.00;;;9.80;99.90;;;;;;5054179;28;20033;-76
2022/03/13 01:46:25;;;;;;;0.00;0.00;;;9.80;99.90;;;;;;5055048;28;20025;-75
2022/03/13 01:48:56;;;;;;;0.00;0.00;;;9.80;99.90;;;;;;5055055;28;20481;-76
2022/03/13 01:51:23;;;;;;;0.00;0.00;;;9.80;99.90;;;;;;5055030;28;20100;-76
2022/03/13 01:53:54;;;;;;;0.10;0.10;;;9.90;99.90;;;;;;5054846;28;20029;-75
2022/03/13 01:56:21;;;;;;;0.10;0.10;;;9.80;99.90;;;;;;5055148;28;20021;-75
2022/03/13 01:58:52;;;;;;;0.10;0.10;;;9.90;99.90;;;;;;5055311;28;20053;-76
2022/03/13 02:01:19;;;;;;;0.00;0.00;;;9.90;99.90;;;;;;5054888;28;20052;-75
2022/03/13 02:03:45;;;;;;;0.10;0.10;;;9.90;99.90;;;;;;5054834;28;20028;-75
2022/03/13 02:06:11;;;;;;;0.00;0.00;;;9.90;99.90;;;;;;5053677;28;20495;-75
2022/03/13 02:08:37;;;;;;;0.00;0.00;;;9.90;99.90;;;;;;5053668;28;20025;-75
2022/03/13 02:11:04;;;;;;;0.00;0.00;;;9.90;99.90;;;;;;5053424;28;20055;-75
2022/03/13 02:13:31;;;;;;;0.00;0.00;;;9.80;99.90;;;;;;5054892;28;20088;-75
2022/03/13 02:15:57;;;;;;;1.15;0.32;;;9.70;99.90;;;;;;5043493;28;20033;-75
2022/03/13 02:18:23;;;;;;;0.00;0.00;;;9.50;99.90;;;;;;5034269;28;20045;-75
2022/03/13 02:20:49;;;;;;;0.03;0.03;;;9.40;99.90;;;;;;5034917;28;20087;-77
2022/03/13 02:23:23;;;;;;;0.15;0.15;;;9.30;99.90;;;;;;5034161;28;20064;-74
2022/03/13 02:25:59;;;;;;;0.00;0.00;;;9.20;99.90;;;;;;5034127;28;20484;-74
2022/03/13 02:28:27;;;;;;;0.00;0.00;;;9.10;99.90;;;;;;5033023;28;20029;-77
2022/03/13 02:31:12;;;;;;;0.15;0.15;;;9.10;99.90;;;;;;5033180;28;20481;-74
2022/03/13 02:33:38;;;;;;;0.00;0.00;;;9.10;99.90;;;;;;5034390;28;20053;-78
2022/03/13 02:36:12;;;;;;;0.00;0.00;;;9.00;99.90;;;;;;5033957;28;20594;-74
2022/03/13 02:38:38;;;;;;;0.00;0.00;;;9.00;99.90;;;;;;5053525;28;20472;-77
2022/03/13 02:41:05;;;;;;;0.00;0.00;;;9.00;99.90;;;;;;5052516;28;20070;-73
2022/03/13 02:43:31;;;;;;;0.00;0.00;;;9.00;99.90;;;;;;5054186;28;20044;-78
2022/03/13 02:45:57;;;;;;;0.00;0.00;;;9.00;99.90;;;;;;5054108;28;20025;-75
2022/03/13 02:48:23;;;;;;;0.00;0.00;;;9.00;99.90;;;;;;5053999;28;20526;-74
2022/03/13 02:50:49;;;;;;;0.00;0.00;;;9.00;99.90;;;;;;5053717;28;20108;-75
2022/03/13 02:53:17;;;;;;;0.00;0.00;;;9.00;99.90;;;;;;5053986;28;20047;-75
2022/03/13 02:55:44;;;;;;;0.00;0.00;;;9.00;99.90;;;;;;5053824;28;20024;-75
2022/03/13 02:58:10;;;;;;;0.00;0.00;;;9.00;99.90;;;;;;5053447;28;20025;-73
2022/03/13 03:00:44;;;;;;;0.00;0.00;;;9.00;99.90;;;;;;5053722;28;20036;-78
2022/03/13 03:03:15;;;;;;;0.63;0.15;;;9.10;99.90;;;;;;5055125;28;20051;-74
2022/03/13 03:05:41;;;;;;;0.00;0.00;;;9.10;99.90;;;;;;5053688;28;20029;-73
2022/03/13 03:08:07;;;;;;;0.15;0.15;;;9.10;99.90;;;;;;5053499;28;20138;-74
2022/03/13 03:10:34;;;;;;;0.00;0.00;;;9.20;99.90;;;;;;5053645;28;20017;-77
2022/03/13 03:13:00;;;;;;;0.00;0.00;;;9.20;99.90;;;;;;5053351;28;20151;-75
2022/03/13 03:15:26;;;;;;;0.00;0.00;;;9.20;99.90;;;;;;5048829;28;20503;-75
2022/03/13 03:17:53;;;;;;;0.00;0.00;;;9.20;99.90;;;;;;5033367;28;20079;-78
2022/03/13 03:20:19;;;;;;;0.00;0.00;;;9.20;99.90;;;;;;5033729;28;20036;-74
2022/03/13 03:22:47;;;;;;;0.00;0.00;;;9.30;99.90;;;;;;5033872;28;20021;-75
2022/03/13 03:25:13;;;;;;;0.00;0.00;;;9.30;99.90;;;;;;5033278;28;20033;-79
2022/03/13 03:27:41;;;;;;;0.00;0.00;;;9.30;99.90;;;;;;5036309;28;20026;-79
2022/03/13 03:30:08;;;;;;;0.20;0.10;;;9.30;99.90;;;;;;5034194;28;20026;-74
2022/03/13 03:32:33;;;;;;;0.00;0.00;;;9.30;99.90;;;;;;5032849;28;20017;-75
2022/03/13 03:34:59;;;;;;;0.00;0.00;;;9.20;99.90;;;;;;5048242;28;20045;-79
2022/03/13 03:37:25;;;;;;;0.00;0.00;;;9.20;99.90;;;;;;5042562;28;20507;-79
2022/03/13 03:39:51;;;;;;;0.00;0.00;;;9.20;99.90;;;;;;5051599;28;20029;-75
2022/03/13 03:42:17;;;;;;;0.00;0.00;;;9.20;99.90;;;;;;5052847;28;20037;-76
2022/03/13 03:44:43;;;;;;;0.30;0.30;;;9.20;99.90;;;;;;5053289;28;20036;-78
2022/03/13 03:47:08;;;;;;;5.18;1.77;;;9.20;99.90;;;;;;5053326;28;20075;-76
2022/03/13 03:49:34;;;;;;;0.10;0.10;;;9.20;99.90;;;;;;5051421;28;20476;-76
2022/03/13 03:52:00;;;;;;;0.00;0.00;;;9.20;99.90;;;;;;5052767;28;20480;-79
2022/03/13 03:54:25;;;;;;;0.00;0.00;;;9.20;99.90;;;;;;5051439;28;20074;-76
2022/03/13 03:56:51;;;;;;;0.00;0.00;;;9.20;99.90;;;;;;5053131;28;20021;-76
2022/03/13 03:59:19;;;;;;;0.00;0.00;;;9.20;99.90;;;;;;5053162;28;20025;-75
2022/03/13 04:01:45;;;;;;;0.00;0.00;;;9.10;99.90;;;;;;5052797;28;20195;-79
2022/03/13 04:04:11;;;;;;;0.00;0.00;;;9.10;99.90;;;;;;5052735;28;20029;-79
2022/03/13 04:06:38;;;;;;;1.75;1.08;;;9.10;99.90;;;;;;5052017;28;20090;-76
2022/03/13 04:09:09;;;;;;;0.00;0.00;;;9.10;99.90;;;;;;5051826;28;20052;-79
2022/03/13 04:11:36;;;;;;;0.00;0.00;;;9.10;99.90;;;;;;5052676;28;20040;-78
2022/03/13 04:14:03;;;;;;;0.05;0.05;;;9.10;99.90;;;;;;5052458;28;20068;-76
2022/03/13 04:16:28;;;;;;;0.00;0.00;;;9.10;99.90;;;;;;5037024;28;20014;-76
2022/03/13 04:18:54;;;;;;;0.00;0.00;;;9.10;99.90;;;;;;5032570;28;20447;-78
2022/03/13 04:21:22;;;;;;;0.00;0.00;;;9.10;99.90;;;;;;5033170;28;20060;-76
2022/03/13 04:23:48;;;;;;;0.00;0.00;;;9.10;99.90;;;;;;5032512;28;20026;-77
2022/03/13 04:26:15;;;;;;;0.05;0.05;;;9.10;99.90;;;;;;5032541;28;20017;-78
2022/03/13 04:28:40;;;;;;;0.00;0.00;;;9.10;99.90;;;;;;5032625;28;20540;-76
2022/03/13 04:31:08;;;;;;;0.15;0.15;;;9.10;99.90;;;;;;5032724;28;20109;-76
2022/03/13 04:33:35;;;;;;;0.70;0.70;;;9.10;99.90;;;;;;5032803;28;20436;-77
2022/03/13 04:36:07;;;;;;;0.55;0.38;;;9.10;99.90;;;;;;5032094;28;20052;-79
2022/03/13 04:38:32;;;;;;;0.22;0.22;;;9.10;99.90;;;;;;5053925;28;20023;-80
2022/03/13 04:40:58;;;;;;;0.00;0.00;;;9.00;99.90;;;;;;5056259;28;20025;-79
2022/03/13 04:43:24;;;;;;;0.00;0.00;;;9.00;99.90;;;;;;5031974;28;20040;-76
2022/03/13 04:45:51;;;;;;;0.00;0.00;;;9.00;99.90;;;;;;5032911;28;20041;-80
2022/03/13 04:48:17;;;;;;;0.00;0.00;;;9.00;99.90;;;;;;5032704;28;20033;-80
2022/03/13 04:50:43;;;;;;;0.00;0.00;;;9.00;99.90;;;;;;5032369;28;20025;-78
2022/03/13 04:53:09;;;;;;;0.47;0.32;;;9.00;99.90;;;;;;5032112;28;20018;-79
2022/03/13 04:55:35;;;;;;;0.00;0.00;;;9.00;99.90;;;;;;5032408;28;20549;-78
2022/03/13 04:58:01;;;;;;;0.00;0.00;;;9.00;99.90;;;;;;5032573;28;20093;-75
2022/03/13 05:00:27;;;;;;;0.00;0.00;;;9.00;99.90;;;;;;5031725;28;20152;-77
2022/03/13 05:02:54;;;;;;;0.00;0.00;;;9.00;99.90;;;;;;5032479;28;20416;-80
2022/03/13 05:05:21;;;;;;;0.00;0.00;;;9.00;99.90;;;;;;5032773;28;20117;-75
2022/03/13 05:07:47;;;;;;;0.03;0.03;;;9.00;99.90;;;;;;5032516;28;20126;-75
2022/03/13 05:10:15;;;;;;;0.30;0.20;;;9.00;99.90;;;;;;5031788;28;20049;-75
2022/03/13 05:12:41;;;;;;;0.00;0.00;;;9.00;99.90;;;;;;5032218;28;20026;-80
2022/03/13 05:15:06;;;;;;;0.32;0.32;;;9.00;99.90;;;;;;5029354;28;20037;-81
2022/03/13 05:17:32;;;;;;;0.00;0.00;;;9.00;99.90;;;;;;5012037;28;20493;-76
2022/03/13 05:19:58;;;;;;;0.00;0.00;;;9.00;99.90;;;;;;5014304;28;20030;-80
2022/03/13 05:22:23;;;;;;;0.00;0.00;;;9.00;99.90;;;;;;5016402;28;20105;-74
2022/03/13 05:24:49;;;;;;;0.70;0.70;;;9.00;99.90;;;;;;5015663;28;20053;-76
2022/03/13 05:27:15;;;;;;;0.00;0.00;;;9.00;99.90;;;;;;5015839;28;20389;-81
2022/03/13 05:29:41;;;;;;;0.00;0.00;;;8.90;99.90;;;;;;5016220;28;20397;-80
2022/03/13 05:32:07;;;;;;;0.00;0.00;;;8.90;99.90;;;;;;5015848;28;20022;-78
2022/03/13 05:34:33;;;;;;;0.00;0.00;;;8.90;99.90;;;;;;5016210;28;20088;-76
2022/03/13 05:36:59;;;;;;;0.00;0.00;;;8.90;99.90;;;;;;5020780;28;20038;-76
2022/03/13 05:39:24;;;;;;;0.25;0.15;;;8.90;99.90;;;;;;5035156;28;20025;-81
2022/03/13 05:41:50;;;;;;;0.00;0.00;;;8.90;99.90;;;;;;5042195;28;20464;-83
2022/03/13 05:44:17;;;;;;;0.00;0.00;;;8.90;99.90;;;;;;5055223;28;20045;-77
2022/03/13 05:46:42;;;;;;;0.57;0.57;;;8.90;99.90;;;;;;5055519;28;20040;-77
2022/03/13 05:49:08;;;;;;;0.00;0.00;;;8.90;99.90;;;;;;5055497;28;20033;-76
2022/03/13 05:51:40;;;;;;;0.38;0.20;;;8.80;99.90;;;;;;5054751;28;20017;-76
2022/03/13 05:54:06;;;;;;;0.00;0.00;;;8.80;99.90;;;;;;5053481;28;20044;-84
2022/03/13 05:56:32;;;;;;;0.00;0.00;;;8.80;99.90;;;;;;5055518;28;20025;-84
2022/03/13 05:58:58;;;;;;;1.13;0.65;;;8.80;99.90;;;;;;5055184;28;20031;-77
2022/03/13 06:01:23;;;;;;;1.40;0.80;;;8.80;99.90;;;;;;5055121;28;20108;-83
2022/03/13 06:03:49;;;;;;;0.00;0.00;;;8.80;99.90;;;;;;5054662;28;20021;-76
2022/03/13 06:06:15;;;;;;;0.55;0.43;;;8.90;99.90;;;;;;5055107;28;20229;-76
2022/03/13 06:08:41;;;;;;;0.00;0.00;;;8.80;99.90;;;;;;5054915;28;20489;-80
2022/03/13 06:11:08;;;;;;;0.00;0.00;;;8.90;99.90;;;;;;5054758;28;20024;-76
2022/03/13 06:13:34;;;;;;;2.65;0.90;;;8.80;99.90;;;;;;5054615;28;20025;-75
2022/03/13 06:16:00;;;;;;;0.45;0.45;;;8.80;99.90;;;;;;5043305;28;20025;-81
2022/03/13 06:18:27;;;;;;;0.00;0.00;;;8.80;99.90;;;;;;5034561;28;20025;-79
2022/03/13 06:20:53;;;;;;;0.00;0.00;;;8.70;99.90;;;;;;5035219;28;20044;-76
2022/03/13 06:23:19;;;;;;;0.17;0.17;;;8.70;99.90;;;;;;5034863;28;20021;-75
2022/03/13 06:25:45;;;;;;;0.03;0.03;;;8.60;99.90;;;;;;5034338;28;20029;-80
2022/03/13 06:28:12;;;;;;;2.28;0.90;;;8.60;99.90;;;;;;5033590;28;20099;-76
2022/03/13 06:30:38;;;;;;;0.30;0.30;;;8.60;99.90;;;;;;5034180;28;20029;-81
2022/03/13 06:33:04;;;;;;;0.65;0.65;;;8.50;99.90;;;;;;5034799;28;20018;-80
2022/03/13 06:35:30;;;;;;;2.17;1.55;;;8.40;99.90;;;;;;5038042;28;20033;-76
2022/03/13 06:37:56;;;;;;;0.38;0.30;;;8.30;99.90;;;;;;5053655;28;20025;-76
2022/03/13 06:40:24;;;;;;;0.00;0.00;;;8.30;99.90;;;;;;5054199;28;20025;-76
2022/03/13 06:42:53;;;;;;;0.25;0.25;;;8.30;99.90;;;;;;5054188;28;20110;-76
2022/03/13 06:45:19;;;;;;;0.00;0.00;;;8.20;99.90;;;;;;5054166;28;20044;-80
2022/03/13 06:47:46;;;;;;;0.00;0.00;;;8.20;99.90;;;;;;5054434;28;20442;-76
2022/03/13 06:50:17;;;;;;;0.00;0.00;;;8.20;99.90;;;;;;5053671;28;20013;-76
2022/03/13 06:52:44;;;;;;;0.45;0.45;;;8.20;99.90;;;;;;5062261;28;20005;-76
2022/03/13 06:55:13;;;;;;;0.10;0.10;;;8.20;99.90;;;;;;5053785;28;20094;-76
2022/03/13 06:57:39;;;;;;;0.00;0.00;;;8.30;99.90;;;;;;5054397;28;20108;-76
2022/03/13 07:00:06;;;;;;;0.15;0.15;;;8.40;99.90;;;;;;5054294;28;20039;-81
2022/03/13 07:02:32;;;;;;;0.00;0.00;;;8.50;99.90;;;;;;5054223;28;20117;-81
2022/03/13 07:04:57;;;;;;;0.00;0.00;;;8.50;99.90;;;;;;5053898;28;20112;-76
2022/03/13 07:07:23;;;;;;;0.45;0.45;;;8.50;99.90;;;;;;5053804;28;20472;-76
2022/03/13 07:09:49;;;;;;;0.00;0.00;;;8.50;99.90;;;;;;5053278;28;20032;-77
2022/03/13 07:12:15;;;;;;;0.00;0.00;;;8.50;99.90;;;;;;5053046;28;20064;-77
2022/03/13 07:14:45;;;;;;;0.15;0.15;;;8.50;99.90;;;;;;5053195;28;20017;-80
2022/03/13 07:17:11;;;;;;;0.00;0.00;;;8.40;99.90;;;;;;5033723;28;20063;-81
2022/03/13 07:19:37;;;;;;;0.10;0.10;;;8.40;99.90;;;;;;5033953;28;20025;-76
2022/03/13 07:22:03;;;;;;;0.00;0.00;;;8.40;99.90;;;;;;5034130;28;20025;-77
2022/03/13 07:24:29;;;;;;;0.00;0.00;;;8.40;99.90;;;;;;5033643;28;20033;-76
2022/03/13 07:26:54;;;;;;;0.10;0.10;;;8.40;99.90;;;;;;5033661;28;20037;-82
2022/03/13 07:29:20;;;;;;;0.00;0.00;;;8.40;99.90;;;;;;5033513;28;20022;-77
2022/03/13 07:31:46;;;;;;;0.00;0.00;;;8.30;99.90;;;;;;5033828;28;20588;-77
2022/03/13 07:34:12;;;;;;;0.00;0.00;;;8.30;99.90;;;;;;5033310;28;20065;-78
2022/03/13 07:36:39;;;;;;;0.00;0.00;;;8.30;99.90;;;;;;5034433;28;20028;-85
2022/03/13 07:39:05;;;;;;;1.50;0.50;;;8.20;99.90;;;;;;5052324;28;20036;-85
2022/03/13 07:41:31;;;;;;;0.20;0.20;;;8.20;99.90;;;;;;5052815;28;20041;-78
2022/03/13 07:43:57;;;;;;;0.00;0.00;;;8.20;99.90;;;;;;5052769;28;20087;-77
2022/03/13 07:46:23;;;;;;;0.00;0.00;;;8.20;99.90;;;;;;5053079;28;20079;-82
2022/03/13 07:48:48;;;;;;;0.00;0.00;;;8.20;99.90;;;;;;5053100;28;20025;-82
2022/03/13 07:51:14;;;;;;;0.00;0.00;;;8.30;99.90;;;;;;5052961;28;20017;-83
2022/03/13 07:53:40;;;;;;;0.00;0.00;;;8.40;99.90;;;;;;5051580;28;20032;-77
2022/03/13 07:56:06;;;;;;;0.00;0.00;;;8.40;99.90;;;;;;5052442;28;20029;-79
2022/03/13 07:58:32;;;;;;;0.00;0.00;;;8.20;99.90;;;;;;5053496;28;20510;-77
2022/03/13 08:00:58;;;;;;;0.00;0.00;;;8.20;99.90;;;;;;5053390;28;20079;-77
2022/03/13 08:03:35;;;;;;;0.13;0.13;;;8.10;99.90;;;;;;5052456;28;20043;-83
2022/03/13 08:06:02;;;;;;;0.00;0.00;;;8.10;99.90;;;;;;5053090;28;20025;-86
2022/03/13 08:08:27;;;;;;;0.00;0.00;;;8.10;99.90;;;;;;5052741;28;20046;-83
2022/03/13 08:10:53;;;;;;;0.45;0.45;;;8.20;99.90;;;;;;5052691;28;20103;-83
2022/03/13 08:13:18;;;;;;;0.73;0.73;;;8.30;99.90;;;;;;5051669;28;20506;-81
2022/03/13 08:15:44;;;;;;;0.10;0.10;;;8.40;99.90;;;;;;5052786;28;20025;-77
2022/03/13 08:18:12;;;;;;;1.45;0.90;;;8.20;99.90;;;;;;5052113;28;20499;-77
2022/03/13 08:20:38;;;;;;;0.32;0.30;;;8.10;99.90;;;;;;5052787;28;20032;-79
2022/03/13 08:23:03;;;;;;;0.47;0.47;;;8.10;99.90;;;;;;5052868;28;20021;-76
2022/03/13 08:25:29;;;;;;;0.00;0.00;;;8.10;99.90;;;;;;5057148;28;20029;-79
2022/03/13 08:27:56;;;;;;;0.00;0.00;;;8.20;99.90;;;;;;5051396;28;20025;-78
2022/03/13 08:30:22;;;;;;;0.00;0.00;;;8.20;99.90;;;;;;5052284;28;20417;-78
2022/03/13 08:32:48;;;;;;;0.00;0.00;;;8.30;99.90;;;;;;5051120;28;20027;-79
2022/03/13 08:35:14;;;;;;;0.00;0.00;;;8.30;99.90;;;;;;5051399;28;20488;-77
2022/03/13 08:37:40;;;;;;;0.38;0.35;;;8.30;99.90;;;;;;5052488;28;20027;-79
2022/03/13 08:40:08;;;;;;;0.00;0.00;;;8.30;99.90;;;;;;5051599;28;20033;-80
2022/03/13 08:42:34;;;;;;;0.00;0.00;;;8.30;99.90;;;;;;5052664;28;20051;-80
2022/03/13 08:45:00;;;;;;;0.00;0.00;;;8.20;99.90;;;;;;5052524;28;20442;-76
2022/03/13 08:47:26;;;;;;;0.90;0.28;;;8.20;99.90;;;;;;5052236;28;20401;-79
2022/03/13 08:49:53;;;;;;;0.15;0.15;;;8.20;99.90;;;;;;5050950;28;20553;-78
2022/03/13 08:52:19;;;;;;;0.00;0.00;;;8.10;99.90;;;;;;5052349;28;20415;-79
2022/03/13 08:54:48;;;;;;;0.00;0.00;;;8.00;99.90;;;;;;5056169;28;20017;-80
2022/03/13 08:57:14;;;;;;;0.13;0.13;;;8.10;99.90;;;;;;5056366;28;20025;-80
2022/03/13 08:59:40;;;;;;;0.70;0.70;;;8.10;99.90;;;;;;5057006;28;20040;-80
2022/03/13 09:02:06;;;;;;;0.25;0.25;;;8.10;99.90;;;;;;5056292;28;20041;-80
2022/03/13 09:04:32;;;;;;;9.35;0.55;;;8.20;99.90;;;;;;5056348;28;20033;-79
2022/03/13 09:06:58;;;;;;;0.00;0.00;;;8.20;99.90;;;;;;5057535;28;20018;-79
2022/03/13 09:09:24;;;;;;;0.80;0.80;;;8.20;99.90;;;;;;5056040;28;20373;-79
2022/03/13 09:11:51;;;;;;;0.43;0.40;;;8.20;99.90;;;;;;5056147;28;20078;-80
2022/03/13 09:14:17;;;;;;;0.00;0.00;;;8.20;99.90;;;;;;5054891;28;20529;-80
2022/03/13 09:16:45;;;;;;;0.25;0.25;;;8.30;99.90;;;;;;5043867;28;20067;-80
2022/03/13 09:19:10;;;;;;;0.17;0.17;;;8.30;99.90;;;;;;5036308;28;20021;-80
2022/03/13 09:21:39;;;;;;;1.25;1.15;;;8.30;99.90;;;;;;5036021;28;20025;-80
2022/03/13 09:24:07;;;;;;;3.30;1.20;;;8.30;99.90;;;;;;5038881;28;20108;-80
2022/03/13 09:26:34;;;;;;;0.00;0.00;;;8.30;99.90;;;;;;5044071;28;20025;-80
2022/03/13 09:29:04;;;;;;;0.10;0.10;;;8.30;99.90;;;;;;5040428;28;20022;-80
2022/03/13 09:31:30;;;;;;;0.05;0.05;;;8.40;99.90;;;;;;5038060;28;20025;-82
2022/03/13 09:33:55;;;;;;;0.00;0.00;;;8.40;99.90;;;;;;5037911;28;20045;-81
2022/03/13 09:36:21;;;;;;;2.03;0.90;;;8.50;99.90;;;;;;5039778;28;20017;-81
2022/03/13 09:38:47;;;;;;;0.08;0.08;;;8.50;99.90;;;;;;5056075;28;20032;-80
2022/03/13 09:41:13;;;;;;;0.40;0.40;;;8.50;99.90;;;;;;5054861;28;20021;-80
2022/03/13 09:43:39;;;;;;;4.97;0.65;;;8.60;99.90;;;;;;5055810;28;20412;-81
2022/03/13 09:46:05;;;;;;;0.17;0.17;;;8.60;99.90;;;;;;5055635;28;20014;-81
2022/03/13 09:48:35;;;;;;;0.10;0.10;;;8.60;99.90;;;;;;5055639;28;20109;-81
2022/03/13 09:51:04;;;;;;;0.28;0.28;;;8.70;99.90;;;;;;5055478;28;20045;-81
2022/03/13 09:53:30;;;;;;;0.00;0.00;;;8.80;99.90;;;;;;5058960;28;20025;-82
2022/03/13 09:55:56;;;;;;;0.22;0.22;;;9.00;99.90;;;;;;5055130;28;20433;-80
2022/03/13 09:58:22;;;;;;;0.25;0.25;;;9.00;99.90;;;;;;5054749;28;20071;-80
2022/03/13 10:00:47;;;;;;;0.63;0.63;;;9.10;99.90;;;;;;5055347;28;20450;-81
2022/03/13 10:03:13;;;;;;;0.70;0.65;;;9.10;99.90;;;;;;5054907;28;20029;-81
2022/03/13 10:05:47;;;;;;;1.00;0.63;;;9.20;99.90;;;;;;5054430;28;20070;-81
2022/03/13 10:08:13;;;;;;;7.88;1.70;;;9.30;99.90;;;;;;5055335;28;20041;-80
2022/03/13 10:10:47;;;;;;;0.00;0.00;;;9.40;99.90;;;;;;5054945;28;20021;-81
2022/03/13 10:13:37;;;;;;;0.40;0.40;;;9.50;99.90;;;;;;5054387;28;20451;-82
2022/03/13 10:16:05;;;;;;;0.20;0.20;;;9.60;99.90;;;;;;5045957;28;20025;-80
2022/03/13 10:18:31;;;;;;;17.58;0.73;;;9.70;99.90;;;;;;5038433;28;20447;-81
2022/03/13 10:20:57;;;;;;;1.85;0.75;;;9.90;99.90;;;;;;5035675;28;20100;-81
2022/03/13 10:23:23;;;;;;;0.10;0.10;;;10.00;99.90;;;;;;5036226;28;20119;-80
2022/03/13 10:25:53;;;;;;;0.00;0.00;;;10.10;99.90;;;;;;5034417;28;20080;-80
2022/03/13 10:28:31;;;;;;;2.83;1.75;;;10.30;99.90;;;;;;5034703;28;20028;-83
2022/03/13 10:31:00;;;;;;;0.00;0.00;;;10.30;99.90;;;;;;5034935;28;20040;-76
2022/03/13 10:33:42;;;;;;;0.75;0.22;;;10.00;99.90;;;;;;5034215;28;20064;-76
2022/03/13 10:36:09;;;;;;;0.00;0.00;;;9.10;99.90;;;;;;5034451;28;20037;-77
2022/03/13 10:38:35;;;;;;;0.00;0.00;;;8.80;99.90;;;;;;5053135;28;20032;-81
2022/03/13 10:41:05;;;;;;;0.00;0.00;;;8.60;99.90;;;;;;5053445;28;20024;-82
2022/03/13 10:43:31;;;;;;;0.00;0.00;;;8.60;99.90;;;;;;5054422;28;20057;-78
2022/03/13 10:45:58;;;;;;;0.00;0.00;;;8.60;99.90;;;;;;5055350;28;20112;-79
2022/03/13 10:48:36;;;;;;;0.00;0.00;;;8.60;99.90;;;;;;5056030;28;20100;-78
2022/03/13 10:51:04;;;;;;;0.00;0.00;;;8.50;99.90;;;;;;5054298;28;20025;-81
2022/03/13 10:53:31;;;;;;;0.10;0.10;;;8.40;99.90;;;;;;5042735;28;20416;-78
2022/03/13 10:56:07;;;;;;;6.03;1.45;;;8.40;99.90;;;;;;5034044;28;20108;-78
2022/03/13 10:58:35;;;;;;;0.00;0.00;;;8.40;99.90;;;;;;5034647;28;20392;-80
2022/03/13 11:01:09;;;;;;;0.13;0.13;;;8.60;99.90;;;;;;5034024;28;20484;-81
2022/03/13 11:03:37;;;;;;;0.03;0.03;;;9.00;99.90;;;;;;5034250;28;20479;-81
2022/03/13 11:06:04;;;;;;;0.00;0.00;;;9.50;99.90;;;;;;5033947;28;20033;-82
2022/03/13 11:08:30;;;;;;;0.05;0.05;;;9.90;99.90;;;;;;5032899;28;20017;-80
2022/03/13 11:11:00;;;;;;;0.00;0.00;;;10.40;99.90;;;;;;5033917;28;20052;-79
2022/03/13 11:13:27;;;;;;;0.08;0.08;;;10.60;99.90;;;;;;5044640;28;20052;-79
2022/03/13 11:15:57;;;;;;;0.25;0.25;;;10.60;99.90;;;;;;5035253;28;20013;-77
2022/03/13 11:18:35;;;;;;;0.00;0.00;;;10.70;99.90;;;;;;5033324;28;20029;-79
2022/03/13 11:21:04;;;;;;;0.00;0.00;;;10.80;99.90;;;;;;5034048;28;20084;-78
2022/03/13 11:23:30;;;;;;;1.73;1.00;;;11.00;99.90;;;;;;5033838;28;20021;-79
2022/03/13 11:25:56;;;;;;;0.32;0.32;;;11.20;99.90;;;;;;5032858;28;20033;-78
2022/03/13 11:28:22;;;;;;;0.25;0.25;;;11.50;99.90;;;;;;5033616;28;20413;-78
2022/03/13 11:30:49;;;;;;;0.17;0.17;;;11.70;99.90;;;;;;5033696;28;20021;-76
2022/03/13 11:33:32;;;;;;;0.10;0.10;;;11.60;99.90;;;;;;5033380;28;20033;-78
2022/03/13 11:36:31;;;;;;;0.10;0.10;;;11.70;99.90;;;;;;5033793;28;20025;-78
2022/03/13 11:39:03;;;;;;;0.00;0.00;;;12.00;99.90;;;;;;5045332;28;20497;-78
2022/03/13 11:41:47;;;;;;;0.95;0.25;;;12.10;99.90;;;;;;5032642;28;20037;-77
2022/03/13 11:44:19;;;;;;;0.85;0.85;;;12.00;99.90;;;;;;5033621;28;20488;-77
2022/03/13 11:46:47;;;;;;;;;;;12.10;99.90;;;;;;5034145;28;20100;-77
2022/03/13 11:49:34;;;;;;;1.00;0.85;;;12.10;99.90;;;;;;5033774;28;20331;-78
2022/03/13 11:52:16;;;;;;;1.20;0.65;;;12.30;99.90;;;;;;5033141;28;20025;-78
2022/03/13 11:54:59;;;;;;;4.75;1.80;;;12.40;99.90;;;;;;5033276;28;20037;-76
2022/03/13 11:57:50;;;;;;;0.63;0.63;;;12.20;99.90;;;;;;5031697;28;20022;-76
2022/03/13 12:00:16;;;;;;;0.22;0.22;;;12.20;99.90;;;;;;5032975;28;20045;-78
2022/03/13 12:02:42;;;;;;;2.72;0.30;;;12.30;99.90;;;;;;5040321;28;20531;-79
2022/03/13 12:05:25;;;;;;;0.63;0.47;;;12.60;99.90;;;;;;5034026;28;20104;-77
2022/03/13 12:08:05;;;;;;;0.15;0.15;;;12.70;99.90;;;;;;5033474;28;20022;-79
2022/03/13 12:10:43;;;;;;;0.40;0.40;;;12.80;99.90;;;;;;5033977;28;20393;-79
2022/03/13 12:13:18;;;;;;;0.65;0.50;;;13.30;99.90;;;;;;5032987;28;20029;-79
2022/03/13 12:15:45;;;;;;;7.03;2.83;;;13.30;99.90;;;;;;5033258;28;20037;-78
2022/03/13 12:18:24;;;;;;;12.73;0.40;;;13.10;99.90;;;;;;5032091;28;20021;-78
2022/03/13 12:20:51;;;;;;;0.85;0.85;;;12.70;99.90;;;;;;5033416;28;20492;-77
2022/03/13 12:23:31;;;;;;;0.90;0.38;;;12.60;99.90;;;;;;5033460;28;20511;-75
2022/03/13 12:26:20;;;;;;;0.35;0.32;;;12.70;99.90;;;;;;5035326;28;20472;-76
2022/03/13 12:28:47;;;;;;;1.65;1.30;;;12.90;99.90;;;;;;5034694;28;20022;-75
2022/03/13 12:31:14;;;;;;;0.47;0.15;;;12.70;99.90;;;;;;5036950;28;20029;-76
2022/03/13 12:33:47;;;;;;;0.43;0.43;;;12.70;99.90;;;;;;5037640;28;20026;-77
2022/03/13 12:36:14;;;;;;;2.85;1.05;;;12.60;99.90;;;;;;5037059;28;20036;-78
2022/03/13 12:38:43;;;;;;;1.08;0.80;;;12.40;99.90;;;;;;5056463;28;20052;-76
2022/03/13 12:41:10;;;;;;;0.00;0.00;;;12.40;99.90;;;;;;5056781;28;20029;-77
2022/03/13 12:44:02;;;;;;;0.82;0.63;;;12.60;99.90;;;;;;5056383;28;20125;-78
2022/03/13 12:46:29;;;;;;;1.50;0.83;;;12.50;99.90;;;;;;5057240;28;20048;-75
2022/03/13 12:49:00;;;;;;;0.20;0.20;;;12.40;99.90;;;;;;5059699;28;20017;-77
2022/03/13 12:51:47;;;;;;;0.10;0.10;;;12.40;99.90;;;;;;5056182;28;20029;-77
2022/03/13 12:54:22;;;;;;;2.25;1.23;;;12.60;99.90;;;;;;5056615;28;20035;-76
2022/03/13 12:56:49;;;;;;;1.13;0.75;;;12.50;99.90;;;;;;5056628;28;20037;-76
2022/03/13 12:59:33;;;;;;;0.65;0.65;;;12.30;99.90;;;;;;5056745;28;20395;-76
2022/03/13 13:02:16;;;;;;;0.00;0.00;;;12.40;99.90;;;;;;5056154;28;20039;-73